Time;durP1;ratioP1;P1;durP2;ratioP2;P2;SDS_P1;SDS_P2;PMS_P1;PMS_P2;Temp;Humidity;BMP_temperature;BMP_pressure;BME280_temperature;BME280_humidity;BME280_pressure;Samples;Min_cycle;Max_cycle;Signal;HPM_P1;HPM_P2
2021/04/26 00:00:18;;;;;;;0.70;0.40;;;;;;;;;;5030604;28;20796;-75
2021/04/26 00:02:44;;;;;;;0.70;0.50;;;;;;;;;;5032448;28;20833;-76
2021/04/26 00:05:10;;;;;;;0.80;0.50;;;;;;;;;;5025162;28;20414;-75
2021/04/26 00:07:36;;;;;;;1.07;0.70;;;;;;;;;;5012618;28;20409;-75
2021/04/26 00:10:03;;;;;;;1.00;0.60;;;;;;;;;;5027149;28;20446;-76
2021/04/26 00:12:29;;;;;;;0.70;0.50;;;;;;;;;;5012204;28;20805;-76
2021/04/26 00:14:55;;;;;;;0.70;0.40;;;;;;;;;;5012713;28;20403;-76
2021/04/26 00:17:21;;;;;;;0.70;0.50;;;;;;;;;;5027885;28;21030;-76
2021/04/26 00:19:47;;;;;;;0.80;0.50;;;;;;;;;;5012997;28;20912;-75
2021/04/26 00:22:13;;;;;;;0.70;0.47;;;;;;;;;;5013457;28;20423;-76
2021/04/26 00:24:41;;;;;;;0.73;0.47;;;;;;;;;;5014395;28;20439;-77
2021/04/26 00:27:08;;;;;;;0.70;0.40;;;;;;;;;;5014583;28;20424;-75
2021/04/26 00:29:34;;;;;;;0.70;0.50;;;;;;;;;;5028489;28;20469;-76
2021/04/26 00:32:00;;;;;;;0.70;0.50;;;;;;;;;;5013799;28;20484;-75
2021/04/26 00:34:26;;;;;;;0.70;0.50;;;;;;;;;;5013507;28;20447;-75
2021/04/26 00:36:52;;;;;;;0.83;0.60;;;;;;;;;;5028518;28;20446;-75
2021/04/26 00:39:18;;;;;;;1.00;0.80;;;;;;;;;;5027810;28;20457;-75
2021/04/26 00:41:44;;;;;;;1.00;0.50;;;;;;;;;;5028016;28;20424;-75
2021/04/26 00:44:13;;;;;;;0.80;0.50;;;;;;;;;;5012927;28;20409;-75
2021/04/26 00:46:39;;;;;;;2.80;0.70;;;;;;;;;;5013033;28;20417;-74
2021/04/26 00:49:05;;;;;;;0.70;0.40;;;;;;;;;;5012133;28;20492;-76
2021/04/26 00:51:31;;;;;;;0.70;0.40;;;;;;;;;;5013613;28;20959;-75
2021/04/26 00:53:57;;;;;;;0.80;0.50;;;;;;;;;;5012885;28;20427;-74
2021/04/26 00:56:23;;;;;;;0.70;0.50;;;;;;;;;;5016156;28;20427;-78
2021/04/26 00:58:49;;;;;;;4.00;1.20;;;;;;;;;;5028096;28;20410;-76
2021/04/26 01:01:18;;;;;;;0.70;0.50;;;;;;;;;;5029806;28;21083;-77
2021/04/26 01:03:44;;;;;;;0.70;0.40;;;;;;;;;;5011633;28;20768;-77
2021/04/26 01:06:12;;;;;;;0.70;0.40;;;;;;;;;;5026924;28;20448;-75
2021/04/26 01:08:39;;;;;;;0.70;0.50;;;;;;;;;;5011627;28;20417;-76
2021/04/26 01:11:05;;;;;;;0.70;0.50;;;;;;;;;;5011386;28;20465;-77
2021/04/26 01:13:43;;;;;;;0.70;0.43;;;;;;;;;;5011772;28;20432;-75
2021/04/26 01:16:12;;;;;;;0.70;0.40;;;;;;;;;;5010802;28;20586;-74
2021/04/26 01:18:38;;;;;;;0.80;0.60;;;;;;;;;;5026698;28;20421;-74
2021/04/26 01:21:16;;;;;;;0.90;0.60;;;;;;;;;;5026401;28;20505;-78
2021/04/26 01:23:51;;;;;;;0.70;0.50;;;;;;;;;;5012723;28;20406;-77
2021/04/26 01:26:37;;;;;;;0.70;0.50;;;;;;;;;;5011895;28;20442;-77
2021/04/26 01:29:26;;;;;;;0.80;0.60;;;;;;;;;;5011387;28;20466;-75
2021/04/26 01:32:02;;;;;;;0.70;0.60;;;;;;;;;;4993551;28;20462;-78
2021/04/26 01:34:29;;;;;;;0.70;0.50;;;;;;;;;;5012654;28;20466;-77
2021/04/26 01:36:56;;;;;;;0.77;0.60;;;;;;;;;;5012184;28;20430;-78
2021/04/26 01:39:22;;;;;;;0.70;0.40;;;;;;;;;;5017260;28;20428;-78
2021/04/26 01:41:49;;;;;;;0.70;0.50;;;;;;;;;;5036894;28;20748;-78
2021/04/26 01:44:15;;;;;;;0.70;0.50;;;;;;;;;;5018198;28;20419;-78
2021/04/26 01:46:43;;;;;;;0.70;0.60;;;;;;;;;;5023359;28;20492;-78
2021/04/26 01:49:09;;;;;;;0.70;0.50;;;;;;;;;;5032670;28;20433;-78
2021/04/26 01:51:35;;;;;;;0.90;0.63;;;;;;;;;;5021157;28;20452;-78
2021/04/26 01:54:02;;;;;;;0.80;0.57;;;;;;;;;;5012878;28;20401;-80
2021/04/26 01:56:33;;;;;;;0.70;0.47;;;;;;;;;;5011785;28;20437;-73
2021/04/26 01:59:00;;;;;;;1.90;0.60;;;;;;;;;;5025785;28;20433;-73
2021/04/26 02:01:26;;;;;;;0.70;0.50;;;;;;;;;;5025570;28;20476;-72
2021/04/26 02:03:53;;;;;;;0.70;0.60;;;;;;;;;;5011015;28;20480;-72
2021/04/26 02:06:19;;;;;;;0.80;0.80;;;;;;;;;;5010989;28;20786;-73
2021/04/26 02:08:45;;;;;;;0.70;0.50;;;;;;;;;;5011110;28;20439;-72
2021/04/26 02:11:14;;;;;;;0.80;0.70;;;;;;;;;;5010422;28;20514;-73
2021/04/26 02:13:41;;;;;;;0.73;0.63;;;;;;;;;;5011263;28;20591;-73
2021/04/26 02:16:07;;;;;;;0.70;0.50;;;;;;;;;;5010670;28;20415;-73
2021/04/26 02:18:33;;;;;;;0.70;0.50;;;;;;;;;;5011067;28;20898;-73
2021/04/26 02:21:00;;;;;;;0.70;0.60;;;;;;;;;;5040016;28;20638;-75
2021/04/26 02:23:26;;;;;;;0.80;0.70;;;;;;;;;;5019944;28;20425;-77
2021/04/26 02:25:52;;;;;;;0.70;0.40;;;;;;;;;;5014549;28;20520;-74
2021/04/26 02:28:18;;;;;;;0.90;0.60;;;;;;;;;;5029167;28;20408;-74
2021/04/26 02:30:47;;;;;;;0.70;0.50;;;;;;;;;;5014097;28;20460;-74
2021/04/26 02:33:15;;;;;;;0.80;0.70;;;;;;;;;;5014165;28;20400;-75
2021/04/26 02:35:42;;;;;;;0.70;0.40;;;;;;;;;;5029449;28;20400;-74
2021/04/26 02:38:09;;;;;;;0.80;0.60;;;;;;;;;;5013944;28;20900;-75
2021/04/26 02:40:46;;;;;;;0.70;0.50;;;;;;;;;;5013753;28;20771;-75
2021/04/26 02:43:13;;;;;;;0.70;0.40;;;;;;;;;;5029077;28;20492;-75
2021/04/26 02:45:44;;;;;;;0.80;0.60;;;;;;;;;;5013934;28;20918;-76
2021/04/26 02:48:10;;;;;;;0.83;0.60;;;;;;;;;;5013994;28;20401;-75
2021/04/26 02:50:36;;;;;;;0.70;0.50;;;;;;;;;;5037253;22;20582;-68
2021/04/26 02:53:02;;;;;;;0.70;0.50;;;;;;;;;;5014680;28;20487;-70
2021/04/26 02:55:29;;;;;;;0.80;0.50;;;;;;;;;;5014217;28;20785;-69
2021/04/26 02:57:56;;;;;;;0.70;0.50;;;;;;;;;;5020924;28;20492;-69
2021/04/26 03:00:23;;;;;;;1.23;0.60;;;;;;;;;;5022050;28;20446;-69
2021/04/26 03:02:50;;;;;;;0.80;0.60;;;;;;;;;;5013412;28;20416;-70
2021/04/26 03:05:17;;;;;;;0.70;0.50;;;;;;;;;;5013678;28;20415;-70
2021/04/26 03:07:43;;;;;;;1.10;1.00;;;;;;;;;;5013205;28;20413;-70
2021/04/26 03:10:11;;;;;;;1.20;0.60;;;;;;;;;;5013631;28;20804;-70
2021/04/26 03:12:38;;;;;;;0.80;0.60;;;;;;;;;;5013545;28;20851;-70
2021/04/26 03:15:15;;;;;;;0.80;0.53;;;;;;;;;;5005301;28;20428;-69
2021/04/26 03:17:41;;;;;;;0.70;0.60;;;;;;;;;;5009417;28;20503;-70
2021/04/26 03:20:09;;;;;;;0.70;0.50;;;;;;;;;;4992990;28;20421;-69
2021/04/26 03:22:35;;;;;;;0.80;0.50;;;;;;;;;;5011205;28;20459;-69
2021/04/26 03:25:01;;;;;;;0.80;0.60;;;;;;;;;;5013080;28;20404;-70
2021/04/26 03:27:27;;;;;;;0.70;0.50;;;;;;;;;;5013060;28;20498;-69
2021/04/26 03:29:54;;;;;;;0.80;0.70;;;;;;;;;;5011275;28;20415;-71
2021/04/26 03:32:20;;;;;;;0.70;0.40;;;;;;;;;;5012445;28;20693;-70
2021/04/26 03:34:47;;;;;;;0.70;0.50;;;;;;;;;;5025073;22;20853;-71
2021/04/26 03:37:15;;;;;;;175.23;74.73;;;;;;;;;;5008482;28;20458;-73
2021/04/26 03:39:41;;;;;;;0.80;0.70;;;;;;;;;;5012506;28;20403;-71
2021/04/26 03:42:07;;;;;;;0.90;0.60;;;;;;;;;;5012920;28;20397;-72
2021/04/26 03:44:33;;;;;;;1.00;0.60;;;;;;;;;;5006050;28;20444;-71
2021/04/26 03:47:00;;;;;;;0.80;0.80;;;;;;;;;;5012822;28;20454;-72
2021/04/26 03:49:27;;;;;;;0.70;0.60;;;;;;;;;;5012336;28;20403;-72
2021/04/26 03:51:53;;;;;;;0.70;0.50;;;;;;;;;;5012216;28;20462;-70
2021/04/26 03:54:20;;;;;;;0.80;0.70;;;;;;;;;;5012615;28;20878;-71
2021/04/26 03:56:46;;;;;;;0.77;0.60;;;;;;;;;;5010847;28;20563;-72
2021/04/26 03:59:12;;;;;;;0.80;0.63;;;;;;;;;;5028698;28;20406;-70
2021/04/26 04:01:38;;;;;;;0.70;0.50;;;;;;;;;;5030711;28;20423;-72
2021/04/26 04:04:05;;;;;;;0.70;0.50;;;;;;;;;;5032205;28;20414;-71
2021/04/26 04:06:31;;;;;;;0.80;0.80;;;;;;;;;;5030356;28;20489;-71
2021/04/26 04:09:05;;;;;;;0.90;0.50;;;;;;;;;;5005500;28;20466;-70
2021/04/26 04:11:31;;;;;;;0.70;0.60;;;;;;;;;;5011538;28;20843;-71
2021/04/26 04:13:57;;;;;;;0.70;0.50;;;;;;;;;;5011960;28;20409;-71
2021/04/26 04:16:23;;;;;;;3.70;0.70;;;;;;;;;;5011695;28;20838;-71
2021/04/26 04:18:49;;;;;;;0.70;0.60;;;;;;;;;;5010839;28;20404;-71
2021/04/26 04:21:15;;;;;;;0.77;0.60;;;;;;;;;;5011872;28;20407;-71
2021/04/26 04:23:41;;;;;;;0.70;0.50;;;;;;;;;;5011889;28;20412;-71
2021/04/26 04:26:08;;;;;;;0.80;0.73;;;;;;;;;;5011355;28;20446;-72
2021/04/26 04:28:34;;;;;;;1.00;0.90;;;;;;;;;;5003193;28;20445;-74
2021/04/26 04:31:00;;;;;;;0.70;0.60;;;;;;;;;;5003879;28;20894;-74
2021/04/26 04:33:26;;;;;;;0.80;0.60;;;;;;;;;;5013053;28;20515;-75
2021/04/26 04:35:52;;;;;;;0.70;0.50;;;;;;;;;;5012227;28;20478;-75
2021/04/26 04:38:19;;;;;;;0.80;0.63;;;;;;;;;;5010646;28;20431;-74
2021/04/26 04:40:45;;;;;;;1.00;0.80;;;;;;;;;;5009832;28;20454;-75
2021/04/26 04:43:11;;;;;;;2.77;1.20;;;;;;;;;;5011430;28;20479;-74
2021/04/26 04:45:37;;;;;;;1.27;0.93;;;;;;;;;;5011286;28;20444;-75
2021/04/26 04:48:04;;;;;;;1.43;1.33;;;;;;;;;;5013317;28;20891;-74
2021/04/26 04:50:30;;;;;;;0.80;0.50;;;;;;;;;;5013426;28;20412;-73
2021/04/26 04:52:56;;;;;;;1.10;0.60;;;;;;;;;;5014126;28;21009;-74
2021/04/26 04:55:22;;;;;;;0.80;0.57;;;;;;;;;;5014425;28;20420;-74
2021/04/26 04:57:48;;;;;;;0.70;0.50;;;;;;;;;;5019222;28;20441;-74
2021/04/26 05:00:14;;;;;;;1.77;0.80;;;;;;;;;;5007136;28;20446;-73
2021/04/26 05:02:40;;;;;;;1.17;0.70;;;;;;;;;;5007615;28;20839;-72
2021/04/26 05:05:06;;;;;;;3.60;0.77;;;;;;;;;;5002835;28;20440;-71
2021/04/26 05:07:32;;;;;;;0.70;0.50;;;;;;;;;;5000509;28;20412;-72
2021/04/26 05:09:58;;;;;;;0.70;0.50;;;;;;;;;;5001588;28;20425;-72
2021/04/26 05:12:24;;;;;;;0.80;0.60;;;;;;;;;;5002183;28;20835;-73
2021/04/26 05:14:51;;;;;;;0.80;0.60;;;;;;;;;;4993428;28;20851;-72
2021/04/26 05:17:17;;;;;;;0.70;0.43;;;;;;;;;;4991749;28;20412;-71
2021/04/26 05:19:43;;;;;;;1.00;0.80;;;;;;;;;;5005253;28;20429;-72
2021/04/26 05:22:09;;;;;;;0.70;0.50;;;;;;;;;;5009663;28;20427;-72
2021/04/26 05:24:37;;;;;;;0.80;0.70;;;;;;;;;;5011060;28;20430;-73
2021/04/26 05:27:03;;;;;;;0.70;0.50;;;;;;;;;;5010924;28;20411;-72
2021/04/26 05:29:29;;;;;;;0.90;0.63;;;;;;;;;;5010378;28;20431;-71
2021/04/26 05:31:55;;;;;;;0.70;0.60;;;;;;;;;;5010413;28;20934;-70
2021/04/26 05:34:21;;;;;;;0.70;0.50;;;;;;;;;;5009650;28;20429;-73
2021/04/26 05:36:47;;;;;;;1.23;1.13;;;;;;;;;;5010903;28;20407;-72
2021/04/26 05:39:13;;;;;;;2.90;1.13;;;;;;;;;;5010348;28;20427;-73
2021/04/26 05:41:39;;;;;;;0.70;0.50;;;;;;;;;;5011313;28;20435;-72
2021/04/26 05:44:05;;;;;;;0.77;0.50;;;;;;;;;;5010834;28;20432;-73
2021/04/26 05:46:31;;;;;;;3.90;1.13;;;;;;;;;;5010357;28;20430;-73
2021/04/26 05:48:57;;;;;;;0.80;0.50;;;;;;;;;;5001575;28;20411;-73
2021/04/26 05:51:26;;;;;;;0.80;0.60;;;;;;;;;;4999768;28;20948;-73
2021/04/26 05:53:52;;;;;;;0.70;0.60;;;;;;;;;;5000379;28;20516;-73
2021/04/26 05:56:18;;;;;;;0.80;0.60;;;;;;;;;;4999141;28;21464;-73
2021/04/26 05:58:44;;;;;;;2.23;2.10;;;;;;;;;;5009436;28;20406;-73
2021/04/26 06:01:10;;;;;;;0.70;0.40;;;;;;;;;;5007601;28;20899;-73
2021/04/26 06:03:36;;;;;;;2.73;1.13;;;;;;;;;;5007577;28;20406;-73
2021/04/26 06:06:02;;;;;;;2.77;0.60;;;;;;;;;;5009606;28;20957;-71
2021/04/26 06:08:29;;;;;;;0.77;0.53;;;;;;;;;;5007015;28;20759;-72
2021/04/26 06:10:54;;;;;;;0.70;0.50;;;;;;;;;;5006821;28;20451;-72
2021/04/26 06:13:20;;;;;;;0.70;0.50;;;;;;;;;;5010964;28;20452;-69
2021/04/26 06:15:46;;;;;;;0.70;0.50;;;;;;;;;;5011260;28;20446;-71
2021/04/26 06:18:14;;;;;;;0.70;0.50;;;;;;;;;;5011200;28;20420;-72
2021/04/26 06:20:44;;;;;;;0.80;0.60;;;;;;;;;;5013206;28;20423;-72
2021/04/26 06:23:10;;;;;;;0.80;0.60;;;;;;;;;;5010620;28;20419;-72
2021/04/26 06:25:37;;;;;;;0.70;0.40;;;;;;;;;;5002383;28;20463;-73
2021/04/26 06:28:06;;;;;;;1.20;1.00;;;;;;;;;;5003233;28;20436;-71
2021/04/26 06:30:32;;;;;;;0.70;0.50;;;;;;;;;;5007450;28;20409;-72
2021/04/26 06:32:58;;;;;;;1.00;0.90;;;;;;;;;;5005588;28;20832;-72
2021/04/26 06:35:24;;;;;;;1.10;1.00;;;;;;;;;;5008109;28;20527;-70
2021/04/26 06:37:50;;;;;;;2.00;1.80;;;;;;;;;;5010308;28;20419;-73
2021/04/26 06:40:16;;;;;;;8.20;1.00;;;;;;;;;;5012346;28;20405;-73
2021/04/26 06:42:42;;;;;;;0.70;0.40;;;;;;;;;;5006779;28;20485;-75
2021/04/26 06:45:09;;;;;;;0.80;0.40;;;;;;;;;;5003843;28;20636;-72
2021/04/26 06:47:35;;;;;;;0.80;0.60;;;;;;;;;;5004697;28;20441;-70
2021/04/26 06:50:01;;;;;;;0.70;0.50;;;;;;;;;;5012198;28;20503;-72
2021/04/26 06:52:27;;;;;;;0.70;0.50;;;;;;;;;;5012742;28;20465;-72
2021/04/26 06:54:53;;;;;;;0.90;0.60;;;;;;;;;;5012211;28;20436;-72
2021/04/26 06:57:19;;;;;;;12.93;11.87;;;;;;;;;;5008884;28;20772;-72
2021/04/26 06:59:45;;;;;;;0.70;0.50;;;;;;;;;;5015091;28;20830;-72
2021/04/26 07:02:12;;;;;;;1.03;0.77;;;;;;;;;;5009396;28;20474;-73
2021/04/26 07:04:37;;;;;;;1.33;0.50;;;;;;;;;;5012588;28;20441;-73
2021/04/26 07:07:03;;;;;;;0.90;0.67;;;;;;;;;;5012005;28;20419;-72
2021/04/26 07:09:29;;;;;;;0.80;0.50;;;;;;;;;;5011590;28;20526;-72
2021/04/26 07:11:57;;;;;;;0.70;0.50;;;;;;;;;;5011024;28;20963;-74
2021/04/26 07:14:23;;;;;;;0.70;0.50;;;;;;;;;;5005277;28;20439;-74
2021/04/26 07:16:49;;;;;;;0.70;0.60;;;;;;;;;;5011605;28;20414;-75
2021/04/26 07:19:15;;;;;;;0.70;0.50;;;;;;;;;;5011711;28;21059;-73
2021/04/26 07:21:41;;;;;;;1.10;0.60;;;;;;;;;;5012518;28;20415;-74
2021/04/26 07:24:07;;;;;;;0.83;0.70;;;;;;;;;;5005749;28;20428;-73
2021/04/26 07:26:34;;;;;;;0.70;0.50;;;;;;;;;;5007530;28;20411;-74
2021/04/26 07:28:59;;;;;;;0.70;0.50;;;;;;;;;;5011713;28;20497;-74
2021/04/26 07:31:25;;;;;;;0.70;0.50;;;;;;;;;;5009744;28;20467;-72
2021/04/26 07:33:51;;;;;;;0.73;0.43;;;;;;;;;;5010518;28;20935;-73
2021/04/26 07:36:17;;;;;;;0.70;0.50;;;;;;;;;;5007778;28;20474;-73
2021/04/26 07:38:43;;;;;;;0.83;0.70;;;;;;;;;;5010940;28;20492;-74
2021/04/26 07:41:10;;;;;;;0.80;0.60;;;;;;;;;;5007046;28;20417;-73
2021/04/26 07:43:38;;;;;;;0.70;0.50;;;;;;;;;;5004894;28;20422;-74
2021/04/26 07:46:04;;;;;;;1.27;0.80;;;;;;;;;;5011068;28;20445;-73
2021/04/26 07:48:30;;;;;;;0.70;0.50;;;;;;;;;;5007020;28;20950;-74
2021/04/26 07:50:55;;;;;;;4.10;0.70;;;;;;;;;;5011578;28;20417;-74
2021/04/26 07:53:21;;;;;;;0.80;0.70;;;;;;;;;;5006014;28;20487;-72
2021/04/26 07:55:47;;;;;;;1.20;0.90;;;;;;;;;;5007715;28;20856;-72
2021/04/26 07:58:13;;;;;;;0.80;0.50;;;;;;;;;;5018346;28;20498;-72
2021/04/26 08:00:40;;;;;;;0.90;0.60;;;;;;;;;;5011868;28;20494;-75
2021/04/26 08:03:05;;;;;;;0.70;0.50;;;;;;;;;;5010904;28;20417;-73
2021/04/26 08:05:32;;;;;;;3.20;0.80;;;;;;;;;;5012192;28;20511;-72
2021/04/26 08:07:58;;;;;;;2.00;1.80;;;;;;;;;;5009597;28;20503;-74
2021/04/26 08:10:24;;;;;;;0.80;0.50;;;;;;;;;;5011068;28;20974;-74
2021/04/26 08:12:50;;;;;;;0.80;0.50;;;;;;;;;;5011732;28;20955;-73
2021/04/26 08:15:16;;;;;;;1.03;0.63;;;;;;;;;;5005045;28;20490;-73
2021/04/26 08:17:42;;;;;;;0.70;0.50;;;;;;;;;;5007914;28;20468;-73
2021/04/26 08:20:09;;;;;;;2.20;0.67;;;;;;;;;;5006760;28;20796;-72
2021/04/26 08:22:35;;;;;;;0.70;0.40;;;;;;;;;;5004311;28;20415;-73
2021/04/26 08:25:01;;;;;;;0.70;0.47;;;;;;;;;;5009507;28;20439;-72
2021/04/26 08:27:27;;;;;;;0.70;0.50;;;;;;;;;;5010825;28;20409;-73
2021/04/26 08:29:53;;;;;;;0.93;0.73;;;;;;;;;;5006956;28;21147;-72
2021/04/26 08:32:19;;;;;;;0.83;0.70;;;;;;;;;;5008987;28;20939;-72
2021/04/26 08:34:45;;;;;;;0.70;0.40;;;;;;;;;;5007072;28;20463;-72
2021/04/26 08:37:11;;;;;;;0.70;0.50;;;;;;;;;;5002734;28;20416;-72
2021/04/26 08:39:37;;;;;;;0.70;0.50;;;;;;;;;;4999152;28;20457;-73
2021/04/26 08:42:04;;;;;;;0.70;0.50;;;;;;;;;;5000816;28;20440;-73
2021/04/26 08:44:30;;;;;;;0.70;0.40;;;;;;;;;;5000595;28;20448;-72
2021/04/26 08:46:56;;;;;;;0.70;0.47;;;;;;;;;;5008183;28;20512;-72
2021/04/26 08:49:22;;;;;;;0.70;0.50;;;;;;;;;;5002396;28;20409;-73
2021/04/26 08:51:49;;;;;;;1.00;0.50;;;;;;;;;;5004281;28;20457;-73
2021/04/26 08:54:19;;;;;;;0.80;0.60;;;;;;;;;;5006017;28;20452;-73
2021/04/26 08:56:45;;;;;;;0.97;0.93;;;;;;;;;;5008401;28;20404;-73
2021/04/26 08:59:12;;;;;;;1.73;0.77;;;;;;;;;;5008896;28;20515;-72
2021/04/26 09:01:38;;;;;;;0.83;0.80;;;;;;;;;;5006589;28;20421;-72
2021/04/26 09:04:05;;;;;;;1.00;0.60;;;;;;;;;;5002782;28;21045;-73
2021/04/26 09:06:53;;;;;;;7.57;0.80;;;;;;;;;;5005046;28;20493;-73
2021/04/26 09:09:32;;;;;;;0.80;0.60;;;;;;;;;;5010515;28;20427;-72
2021/04/26 09:11:58;;;;;;;0.90;0.63;;;;;;;;;;5004084;28;20472;-73
2021/04/26 09:14:36;;;;;;;2.13;0.67;;;;;;;;;;5002389;28;20476;-73
2021/04/26 09:17:21;;;;;;;0.70;0.50;;;;;;;;;;5003720;28;20989;-73
2021/04/26 09:19:47;;;;;;;0.70;0.47;;;;;;;;;;5001611;28;20809;-73
2021/04/26 09:22:13;;;;;;;0.80;0.53;;;;;;;;;;5007106;28;20467;-72
2021/04/26 09:24:39;;;;;;;1.90;0.97;;;;;;;;;;5007942;28;20510;-73
2021/04/26 09:27:10;;;;;;;0.70;0.50;;;;;;;;;;5008134;28;20945;-73
2021/04/26 09:29:37;;;;;;;0.70;0.50;;;;;;;;;;5007347;28;20493;-72
2021/04/26 09:32:14;;;;;;;0.70;0.50;;;;;;;;;;5007907;28;20554;-73
2021/04/26 09:34:47;;;;;;;1.03;0.93;;;;;;;;;;5011791;28;20445;-72
2021/04/26 09:37:16;;;;;;;2.07;0.80;;;;;;;;;;5007310;28;20943;-72
2021/04/26 09:39:59;;;;;;;2.50;1.60;;;;;;;;;;5011635;28;20491;-72
2021/04/26 09:42:44;;;;;;;1.00;0.60;;;;;;;;;;5008024;28;20504;-72
2021/04/26 09:45:22;;;;;;;0.80;0.50;;;;;;;;;;5007213;28;20832;-72
2021/04/26 09:47:49;;;;;;;0.83;0.67;;;;;;;;;;5002154;28;20557;-72
2021/04/26 09:50:15;;;;;;;0.90;0.70;;;;;;;;;;5005484;28;20494;-72
2021/04/26 09:52:41;;;;;;;0.70;0.50;;;;;;;;;;5008017;28;20452;-72
2021/04/26 09:55:27;;;;;;;1.20;0.73;;;;;;;;;;5008111;28;20432;-72
2021/04/26 09:57:53;;;;;;;2.00;0.80;;;;;;;;;;5007360;28;20410;-72
2021/04/26 10:00:19;;;;;;;0.90;0.50;;;;;;;;;;5008297;28;20408;-73
2021/04/26 10:02:45;;;;;;;0.80;0.60;;;;;;;;;;5011999;28;20425;-72
2021/04/26 10:05:12;;;;;;;0.70;0.50;;;;;;;;;;5012947;28;20946;-73
2021/04/26 10:07:38;;;;;;;0.70;0.50;;;;;;;;;;5010433;28;20892;-72
2021/04/26 10:10:05;;;;;;;1.00;0.87;;;;;;;;;;5008138;28;20422;-73
2021/04/26 10:12:31;;;;;;;0.90;0.67;;;;;;;;;;5011383;28;20967;-72
2021/04/26 10:14:57;;;;;;;0.77;0.57;;;;;;;;;;5007992;28;20475;-72
2021/04/26 10:17:23;;;;;;;0.70;0.50;;;;;;;;;;5010544;28;20487;-72
2021/04/26 10:19:50;;;;;;;1.40;1.00;;;;;;;;;;5011242;28;20499;-73
2021/04/26 10:22:16;;;;;;;0.70;0.53;;;;;;;;;;5010851;28;20977;-72
2021/04/26 10:24:52;;;;;;;1.53;1.23;;;;;;;;;;5011804;28;20466;-73
2021/04/26 10:27:29;;;;;;;3.47;0.80;;;;;;;;;;5010787;28;20453;-73
2021/04/26 10:30:06;;;;;;;0.90;0.70;;;;;;;;;;5008116;28;20473;-73
2021/04/26 10:32:52;;;;;;;0.70;0.50;;;;;;;;;;5010754;28;20584;-73
2021/04/26 10:35:18;;;;;;;1.00;0.87;;;;;;;;;;5011418;28;20506;-72
2021/04/26 10:37:44;;;;;;;3.10;1.40;;;;;;;;;;5009207;28;20379;-71
2021/04/26 10:40:12;;;;;;;0.90;0.70;;;;;;;;;;5005358;28;20802;-71
2021/04/26 10:42:40;;;;;;;0.70;0.53;;;;;;;;;;5008027;28;20416;-72
2021/04/26 10:45:12;;;;;;;0.70;0.60;;;;;;;;;;5007172;28;20410;-72
2021/04/26 10:47:39;;;;;;;0.90;0.70;;;;;;;;;;5005606;28;20403;-72
2021/04/26 10:50:05;;;;;;;1.37;0.63;;;;;;;;;;5003697;28;20409;-72
2021/04/26 10:52:34;;;;;;;0.90;0.70;;;;;;;;;;5001333;28;20942;-72
2021/04/26 10:55:01;;;;;;;0.90;0.70;;;;;;;;;;5002382;28;20353;-72
2021/04/26 10:57:37;;;;;;;1.63;1.03;;;;;;;;;;5005452;28;20391;-71
2021/04/26 11:02:52;;;;;;;18.80;1.20;;;;;;;;;;5000975;28;20395;-73
2021/04/26 11:05:25;;;;;;;0.80;0.57;;;;;;;;;;5003847;28;20439;-72
2021/04/26 11:07:59;;;;;;;0.80;0.70;;;;;;;;;;5005438;28;20391;-72
2021/04/26 11:10:45;;;;;;;3.13;0.90;;;;;;;;;;5002830;28;20751;-72
2021/04/26 11:13:29;;;;;;;1.33;0.70;;;;;;;;;;5008567;28;20559;-73
2021/04/26 11:16:12;;;;;;;0.70;0.50;;;;;;;;;;5006156;28;20440;-73
2021/04/26 11:18:39;;;;;;;1.07;0.87;;;;;;;;;;5003036;28;20501;-74
2021/04/26 11:21:05;;;;;;;0.80;0.70;;;;;;;;;;5004059;28;20444;-72
2021/04/26 11:23:45;;;;;;;2.03;0.80;;;;;;;;;;5004373;28;20429;-71
2021/04/26 11:26:12;;;;;;;1.17;0.93;;;;;;;;;;5001332;28;20405;-72
2021/04/26 11:29:03;;;;;;;0.80;0.70;;;;;;;;;;5005573;28;20878;-73
2021/04/26 11:31:44;;;;;;;3.83;1.00;;;;;;;;;;5002606;28;20432;-72
2021/04/26 11:34:11;;;;;;;0.80;0.70;;;;;;;;;;5005109;28;20422;-72
2021/04/26 11:36:38;;;;;;;0.90;0.80;;;;;;;;;;5004341;28;20418;-70
2021/04/26 11:39:08;;;;;;;0.80;0.63;;;;;;;;;;5008823;28;20555;-69
2021/04/26 11:41:41;;;;;;;1.60;0.87;;;;;;;;;;5008789;28;20394;-69
2021/04/26 11:44:07;;;;;;;0.80;0.60;;;;;;;;;;5002944;28;20398;-68
2021/04/26 11:46:34;;;;;;;1.20;1.10;;;;;;;;;;5010029;28;20934;-70
2021/04/26 11:49:12;;;;;;;0.90;0.80;;;;;;;;;;5005567;28;20934;-69
2021/04/26 11:51:38;;;;;;;1.00;0.70;;;;;;;;;;5006954;28;20459;-71
2021/04/26 11:54:15;;;;;;;1.00;0.90;;;;;;;;;;5006924;28;20926;-70
2021/04/26 11:56:41;;;;;;;0.90;0.73;;;;;;;;;;5010690;28;21257;-69
2021/04/26 11:59:07;;;;;;;0.80;0.70;;;;;;;;;;5013543;28;20421;-71
2021/04/26 12:01:34;;;;;;;4.17;0.90;;;;;;;;;;5010464;28;20420;-70
2021/04/26 12:04:00;;;;;;;1.20;0.60;;;;;;;;;;5008667;28;20468;-70
2021/04/26 12:06:29;;;;;;;0.97;0.70;;;;;;;;;;5008591;28;20395;-70
2021/04/26 12:08:55;;;;;;;0.80;0.70;;;;;;;;;;5009002;28;20388;-69
2021/04/26 12:11:22;;;;;;;0.83;0.70;;;;;;;;;;5008659;28;20901;-70
2021/04/26 12:14:07;;;;;;;1.00;0.80;;;;;;;;;;5008930;28;20423;-70
2021/04/26 12:16:33;;;;;;;1.20;0.83;;;;;;;;;;5008691;28;20499;-70
2021/04/26 12:19:02;;;;;;;1.33;0.90;;;;;;;;;;5008411;28;20551;-70
2021/04/26 12:21:28;;;;;;;1.00;0.90;;;;;;;;;;5008698;28;20413;-70
2021/04/26 12:23:54;;;;;;;0.90;0.70;;;;;;;;;;5008450;28;20399;-70
2021/04/26 12:26:20;;;;;;;1.00;0.80;;;;;;;;;;5007920;28;20437;-70
2021/04/26 12:28:48;;;;;;;1.00;0.90;;;;;;;;;;5009589;28;20500;-70
2021/04/26 12:31:18;;;;;;;0.70;0.60;;;;;;;;;;5041256;23;20856;-74
2021/04/26 12:33:44;;;;;;;0.90;0.70;;;;;;;;;;5031677;28;20420;-74
2021/04/26 12:36:10;;;;;;;0.83;0.60;;;;;;;;;;5035177;28;20458;-73
2021/04/26 12:38:37;;;;;;;2.47;0.97;;;;;;;;;;5038446;28;20408;-72
2021/04/26 12:41:03;;;;;;;1.63;1.00;;;;;;;;;;5048951;28;20431;-73
2021/04/26 12:43:32;;;;;;;1.73;0.80;;;;;;;;;;5043369;28;20421;-70
2021/04/26 12:46:04;;;;;;;1.17;1.07;;;;;;;;;;5049012;28;20419;-69
2021/04/26 12:48:31;;;;;;;1.00;0.90;;;;;;;;;;5053140;28;20443;-70
2021/04/26 12:50:57;;;;;;;3.53;1.30;;;;;;;;;;5044946;28;20401;-70
2021/04/26 12:53:29;;;;;;;0.80;0.73;;;;;;;;;;5044220;28;21353;-69
2021/04/26 12:55:57;;;;;;;0.80;0.80;;;;;;;;;;5045200;28;20430;-69
2021/04/26 12:58:34;;;;;;;1.57;1.47;;;;;;;;;;5048121;28;20444;-69
2021/04/26 13:01:02;;;;;;;1.00;0.90;;;;;;;;;;5035495;28;20708;-70
2021/04/26 13:03:35;;;;;;;1.53;0.80;;;;;;;;;;5036819;28;20404;-69
2021/04/26 13:06:10;;;;;;;1.30;0.90;;;;;;;;;;5032256;28;20485;-75
2021/04/26 13:08:40;;;;;;;1.50;0.90;;;;;;;;;;5031026;28;20472;-76
2021/04/26 13:11:07;;;;;;;1.10;0.60;;;;;;;;;;5029354;28;20410;-76
2021/04/26 13:13:48;;;;;;;1.00;0.70;;;;;;;;;;5031631;28;20487;-74
2021/04/26 13:16:21;;;;;;;0.70;0.50;;;;;;;;;;5029600;28;20383;-75
2021/04/26 13:18:50;;;;;;;1.23;0.70;;;;;;;;;;5029778;28;20396;-74
2021/04/26 13:21:16;;;;;;;0.80;0.60;;;;;;;;;;5029170;28;20431;-75
2021/04/26 13:23:42;;;;;;;0.93;0.70;;;;;;;;;;5028393;28;20948;-74
2021/04/26 13:26:24;;;;;;;2.07;1.23;;;;;;;;;;5011266;28;20408;-74
2021/04/26 13:28:50;;;;;;;1.10;0.80;;;;;;;;;;5024075;28;20408;-73
2021/04/26 13:31:16;;;;;;;1.50;1.00;;;;;;;;;;5027971;28;20945;-76
2021/04/26 13:33:42;;;;;;;0.80;0.60;;;;;;;;;;5029771;28;20410;-75
2021/04/26 13:36:08;;;;;;;0.80;0.70;;;;;;;;;;5029612;28;20438;-76
2021/04/26 13:38:34;;;;;;;4.60;2.23;;;;;;;;;;5029596;28;20385;-75
2021/04/26 13:41:00;;;;;;;1.37;0.97;;;;;;;;;;5029147;28;20961;-75
2021/04/26 13:43:28;;;;;;;0.90;0.73;;;;;;;;;;5028634;28;20901;-75
2021/04/26 13:45:54;;;;;;;1.20;0.87;;;;;;;;;;5029370;28;20466;-74
2021/04/26 13:48:20;;;;;;;1.00;0.90;;;;;;;;;;5028593;28;20785;-74
2021/04/26 13:50:46;;;;;;;1.10;1.00;;;;;;;;;;5029138;28;20486;-74
2021/04/26 13:53:13;;;;;;;1.50;1.07;;;;;;;;;;5028832;28;20451;-74
2021/04/26 13:55:39;;;;;;;0.80;0.60;;;;;;;;;;5028232;28;20416;-74
2021/04/26 13:58:05;;;;;;;1.37;1.10;;;;;;;;;;5030622;28;20420;-75
2021/04/26 14:00:33;;;;;;;0.93;0.83;;;;;;;;;;5030077;28;20877;-74
2021/04/26 14:02:59;;;;;;;0.70;0.60;;;;;;;;;;5028702;28;20415;-74
2021/04/26 14:05:26;;;;;;;1.57;1.00;;;;;;;;;;5029828;28;20387;-74
2021/04/26 14:07:52;;;;;;;0.90;0.70;;;;;;;;;;5030925;28;20410;-77
2021/04/26 14:10:18;;;;;;;1.03;0.93;;;;;;;;;;5029401;28;20888;-75
2021/04/26 14:12:44;;;;;;;1.67;1.43;;;;;;;;;;5029920;28;20430;-74
2021/04/26 14:15:11;;;;;;;1.10;0.80;;;;;;;;;;5030105;28;20404;-75
2021/04/26 14:17:37;;;;;;;1.57;1.47;;;;;;;;;;5029880;28;20804;-75
2021/04/26 14:20:04;;;;;;;1.10;0.90;;;;;;;;;;5033273;28;20410;-75
2021/04/26 14:22:30;;;;;;;0.93;0.80;;;;;;;;;;5033469;28;20477;-75
2021/04/26 14:24:58;;;;;;;4.73;2.20;;;;;;;;;;5032177;28;20419;-74
2021/04/26 14:27:24;;;;;;;0.70;0.60;;;;;;;;;;5030054;28;20450;-75
2021/04/26 14:29:50;;;;;;;0.90;0.60;;;;;;;;;;5033001;28;20897;-76
2021/04/26 14:32:17;;;;;;;0.80;0.70;;;;;;;;;;5033217;28;20546;-76
2021/04/26 14:34:43;;;;;;;0.90;0.80;;;;;;;;;;5033408;28;20400;-75
2021/04/26 14:37:09;;;;;;;0.80;0.60;;;;;;;;;;5031456;28;20419;-75
2021/04/26 14:39:35;;;;;;;1.17;0.80;;;;;;;;;;5032764;28;20443;-74
2021/04/26 14:42:03;;;;;;;2.03;0.93;;;;;;;;;;5032150;28;20457;-75
2021/04/26 14:44:29;;;;;;;2.77;1.20;;;;;;;;;;5033266;28;20408;-76
2021/04/26 14:46:56;;;;;;;1.07;0.97;;;;;;;;;;5033950;28;20431;-76
2021/04/26 14:49:22;;;;;;;2.83;1.43;;;;;;;;;;5032522;28;20419;-73